createdAt,value
2019-05-18T00:00:40.608Z,99.90
2019-05-18T00:03:09.906Z,99.90
2019-05-18T00:05:41.584Z,99.90
2019-05-18T00:08:13.998Z,99.90
2019-05-18T00:10:43.366Z,99.90
2019-05-18T00:13:13.030Z,99.90
2019-05-18T00:15:42.793Z,99.90
2019-05-18T00:18:12.115Z,99.90
2019-05-18T00:20:41.441Z,99.90
2019-05-18T00:23:10.736Z,99.90
2019-05-18T00:25:40.056Z,99.90
2019-05-18T00:28:09.364Z,99.90
2019-05-18T00:30:39.148Z,99.90
2019-05-18T00:33:08.543Z,99.90
2019-05-18T00:35:44.254Z,99.90
2019-05-18T00:38:16.219Z,99.90
2019-05-18T00:40:46.434Z,99.90
2019-05-18T00:43:16.092Z,99.90
2019-05-18T00:45:47.261Z,99.90
2019-05-18T00:48:17.167Z,99.90
2019-05-18T00:50:46.591Z,99.90
2019-05-18T00:53:16.635Z,99.90
2019-05-18T00:55:45.931Z,99.90
2019-05-18T00:58:15.773Z,99.90
2019-05-18T01:00:45.534Z,99.90
2019-05-18T01:03:14.947Z,99.90
2019-05-18T01:05:44.976Z,99.90
2019-05-18T01:08:16.769Z,99.90
2019-05-18T01:10:46.423Z,99.90
2019-05-18T01:13:16.018Z,99.90
2019-05-18T01:15:47.539Z,99.90
2019-05-18T01:18:17.237Z,99.90
2019-05-18T01:20:47.038Z,99.90
2019-05-18T01:23:16.595Z,99.90
2019-05-18T01:25:45.953Z,99.90
2019-05-18T01:28:16.922Z,99.90
2019-05-18T01:30:47.583Z,99.90
2019-05-18T01:33:19.336Z,99.90
2019-05-18T01:35:49.782Z,99.90
2019-05-18T01:38:20.548Z,99.90
2019-05-18T01:40:52.313Z,99.90
2019-05-18T01:43:29.098Z,99.90
2019-05-18T01:46:04.257Z,99.90
2019-05-18T01:48:37.328Z,99.90
2019-05-18T01:51:09.139Z,99.90
2019-05-18T01:53:47.297Z,99.90
2019-05-18T01:56:17.515Z,99.90
2019-05-18T01:58:48.222Z,99.90
2019-05-18T02:01:22.184Z,99.90
2019-05-18T02:03:53.552Z,99.90
2019-05-18T02:06:25.443Z,99.90
2019-05-18T02:08:55.776Z,99.90
2019-05-18T02:11:29.483Z,99.90
2019-05-18T02:14:00.598Z,99.90
2019-05-18T02:16:31.554Z,99.90
2019-05-18T02:19:01.875Z,99.90
2019-05-18T02:21:33.115Z,99.90
2019-05-18T02:24:03.538Z,99.90
2019-05-18T02:26:34.574Z,99.90
2019-05-18T02:29:05.783Z,99.90
2019-05-18T02:31:37.159Z,99.90
2019-05-18T02:34:10.224Z,99.90
2019-05-18T02:36:42.248Z,99.90
2019-05-18T02:39:15.237Z,99.90
2019-05-18T02:41:49.259Z,99.90
2019-05-18T02:44:23.496Z,99.90
2019-05-18T02:46:55.547Z,99.90
2019-05-18T02:49:29.134Z,99.90
2019-05-18T02:52:08.530Z,99.90
2019-05-18T02:54:39.243Z,99.90
2019-05-18T02:57:10.340Z,99.90
2019-05-18T02:59:41.250Z,99.90
2019-05-18T03:02:12.151Z,99.90
2019-05-18T03:04:44.083Z,99.90
2019-05-18T03:07:16.230Z,99.90
2019-05-18T03:09:47.251Z,99.90
2019-05-18T03:12:16.636Z,99.90
2019-05-18T03:14:45.935Z,99.90
2019-05-18T03:17:17.223Z,99.90
2019-05-18T03:19:46.991Z,99.90
2019-05-18T03:22:16.639Z,99.90
2019-05-18T03:24:46.620Z,99.90
2019-05-18T03:27:15.920Z,99.90
2019-05-18T03:29:46.284Z,99.90
2019-05-18T03:32:16.300Z,99.90
2019-05-18T03:34:50.790Z,99.90
2019-05-18T03:37:23.682Z,99.90
2019-05-18T03:39:56.924Z,99.90
2019-05-18T03:42:29.215Z,99.90
2019-05-18T03:45:03.939Z,99.90
2019-05-18T03:47:37.014Z,99.90
2019-05-18T03:50:09.444Z,99.90
2019-05-18T03:52:42.755Z,99.90
2019-05-18T03:55:13.639Z,99.90
2019-05-18T03:57:44.034Z,99.90
2019-05-18T04:00:14.990Z,99.90
2019-05-18T04:02:46.320Z,99.90
2019-05-18T04:05:16.734Z,99.90
2019-05-18T04:07:50.788Z,99.90
2019-05-18T04:10:32.851Z,99.90
2019-05-18T04:13:05.409Z,99.90
2019-05-18T04:15:36.375Z,99.90
2019-05-18T04:18:06.565Z,99.90
2019-05-18T04:20:38.201Z,99.90
2019-05-18T04:23:09.890Z,99.90
2019-05-18T04:25:45.749Z,99.90
2019-05-18T04:28:20.070Z,99.90
2019-05-18T04:30:53.041Z,99.90
2019-05-18T04:33:26.108Z,99.90
2019-05-18T04:36:00.473Z,99.90
2019-05-18T04:38:34.069Z,99.90
2019-05-18T04:41:07.390Z,99.90
2019-05-18T04:43:42.646Z,99.90
2019-05-18T04:46:15.134Z,99.90
2019-05-18T04:48:48.176Z,99.90
2019-05-18T04:51:21.208Z,99.90
2019-05-18T04:53:53.750Z,99.90
2019-05-18T04:56:24.243Z,99.90
2019-05-18T04:58:57.223Z,99.90
2019-05-18T05:01:27.908Z,99.90
2019-05-18T05:04:00.541Z,99.90
2019-05-18T05:06:31.325Z,99.90
2019-05-18T05:09:01.097Z,99.90
2019-05-18T05:11:31.020Z,99.90
2019-05-18T05:14:00.702Z,99.90
2019-05-18T05:16:30.446Z,99.90
2019-05-18T05:19:08.690Z,99.90
2019-05-18T05:21:44.500Z,99.90
2019-05-18T05:24:17.457Z,99.90
2019-05-18T05:26:53.040Z,99.90
2019-05-18T05:29:24.824Z,99.90
2019-05-18T05:31:59.441Z,99.90
2019-05-18T05:34:29.986Z,99.90
2019-05-18T05:37:00.871Z,99.90
2019-05-18T05:39:31.995Z,99.90
2019-05-18T05:42:02.475Z,99.90
2019-05-18T05:44:36.008Z,99.90
2019-05-18T05:47:08.082Z,99.90
2019-05-18T05:49:42.323Z,99.90
2019-05-18T05:52:17.606Z,99.90
2019-05-18T05:54:51.103Z,99.90
2019-05-18T05:57:24.849Z,99.90
2019-05-18T05:59:58.941Z,99.90
2019-05-18T06:02:32.985Z,99.90
2019-05-18T06:05:05.889Z,99.90
2019-05-18T06:07:36.998Z,99.90
2019-05-18T06:10:06.792Z,99.90
2019-05-18T06:12:36.177Z,99.90
2019-05-18T06:15:05.834Z,99.90
2019-05-18T06:17:35.492Z,99.90
2019-05-18T06:20:05.503Z,99.90
2019-05-18T06:22:38.152Z,99.90
2019-05-18T06:25:08.116Z,99.90
2019-05-18T06:27:37.731Z,99.90
2019-05-18T06:30:07.773Z,99.90
2019-05-18T06:32:37.409Z,99.90
2019-05-18T06:35:07.956Z,99.90
2019-05-18T06:37:38.944Z,99.90
2019-05-18T06:40:10.540Z,99.90
2019-05-18T06:42:41.672Z,99.90
2019-05-18T06:45:11.084Z,99.90
2019-05-18T06:47:50.759Z,99.90
2019-05-18T06:50:29.780Z,99.90
2019-05-18T06:53:05.104Z,99.90
2019-05-18T06:55:39.056Z,99.90
2019-05-18T06:58:14.032Z,99.90
2019-05-18T07:00:45.815Z,99.90
2019-05-18T07:03:20.164Z,99.90
2019-05-18T07:05:52.230Z,99.90
2019-05-18T07:08:25.854Z,99.90
2019-05-18T07:11:00.236Z,99.90
2019-05-18T07:13:30.088Z,99.90
2019-05-18T07:16:01.995Z,99.90
2019-05-18T07:18:31.419Z,99.90
2019-05-18T07:21:01.130Z,99.90
2019-05-18T07:23:30.889Z,99.90
2019-05-18T07:26:16.693Z,99.90
2019-05-18T07:28:46.386Z,99.90
2019-05-18T07:31:15.902Z,99.90
2019-05-18T07:33:49.413Z,99.90
2019-05-18T07:36:18.770Z,99.90
2019-05-18T07:38:50.708Z,99.90
2019-05-18T07:41:27.707Z,99.90
2019-05-18T07:44:09.505Z,99.90
2019-05-18T07:46:49.850Z,99.90
2019-05-18T07:49:26.202Z,99.90
2019-05-18T07:51:59.096Z,99.90
2019-05-18T07:54:32.447Z,99.90
2019-05-18T07:57:06.992Z,99.90
2019-05-18T07:59:41.635Z,99.90
2019-05-18T08:02:17.906Z,99.90
2019-05-18T08:04:50.036Z,99.90
2019-05-18T08:07:21.244Z,99.90
2019-05-18T08:09:50.895Z,99.90
2019-05-18T08:12:21.017Z,99.90
2019-05-18T08:14:50.640Z,99.90
2019-05-18T08:17:25.221Z,99.90
2019-05-18T08:19:54.810Z,99.90
2019-05-18T08:22:25.043Z,99.90
2019-05-18T08:25:13.871Z,99.90
2019-05-18T08:27:42.061Z,99.90
2019-05-18T08:33:50.716Z,99.90
2019-05-18T08:36:25.514Z,99.90
2019-05-18T08:38:57.795Z,99.90
2019-05-18T08:41:32.250Z,99.90
2019-05-18T08:44:06.070Z,99.90
2019-05-18T08:46:41.825Z,99.90
2019-05-18T08:50:18.180Z,99.90
2019-05-18T08:53:26.317Z,99.90
2019-05-18T08:56:01.465Z,99.90
2019-05-18T08:59:28.028Z,99.90
2019-05-18T09:02:06.331Z,99.90
2019-05-18T09:05:50.005Z,99.90
2019-05-18T09:08:27.817Z,99.90
2019-05-18T09:11:28.481Z,99.90
2019-05-18T09:14:31.807Z,99.90
2019-05-18T09:17:36.389Z,99.90
2019-05-18T09:20:19.936Z,99.90
2019-05-18T09:23:01.611Z,99.90
2019-05-18T09:30:31.407Z,99.90
2019-05-18T09:37:44.832Z,99.90
2019-05-18T09:44:08.274Z,99.90
2019-05-18T09:47:26.417Z,99.90
2019-05-18T09:50:49.737Z,99.90
2019-05-18T09:53:51.481Z,99.90
2019-05-18T10:00:38.600Z,99.90
2019-05-18T10:06:45.745Z,99.90
2019-05-18T10:16:57.100Z,99.90
2019-05-18T10:27:13.705Z,99.90
2019-05-18T11:01:04.053Z,99.90
2019-05-18T11:11:32.316Z,99.90
2019-05-18T11:26:18.333Z,99.90
2019-05-18T11:51:05.965Z,99.90
2019-05-18T12:16:43.740Z,99.90
2019-05-18T12:34:14.336Z,99.90
2019-05-18T12:37:36.449Z,99.90
2019-05-18T12:42:11.845Z,99.90
2019-05-18T12:49:10.126Z,97.70
2019-05-18T12:52:57.221Z,99.60
2019-05-18T12:56:02.931Z,99.90
2019-05-18T13:03:13.437Z,97.80
2019-05-18T13:06:25.380Z,99.90
2019-05-18T13:16:49.245Z,97.00
2019-05-18T13:20:04.530Z,98.30
2019-05-18T13:23:04.141Z,97.20
2019-05-18T13:25:58.567Z,96.90
2019-05-18T13:29:09.053Z,96.70
2019-05-18T13:31:53.562Z,98.00
2019-05-18T13:35:16.588Z,95.30
2019-05-18T13:38:55.545Z,93.50
2019-05-18T13:49:04.417Z,96.70
2019-05-18T13:51:45.477Z,95.10
2019-05-18T13:54:37.455Z,94.60
2019-05-18T13:57:44.080Z,93.50
2019-05-18T14:00:44.593Z,90.90
2019-05-18T14:03:49.011Z,93.20
2019-05-18T14:06:47.093Z,94.20
2019-05-18T14:09:26.226Z,95.00
2019-05-18T14:12:06.603Z,93.90
2019-05-18T14:14:55.986Z,94.60
2019-05-18T14:17:38.298Z,93.40
2019-05-18T14:20:11.774Z,95.40
2019-05-18T14:22:51.171Z,93.80
2019-05-18T14:25:55.848Z,95.20
2019-05-18T14:28:48.677Z,96.70
2019-05-18T14:31:28.315Z,97.30
2019-05-18T14:34:11.917Z,98.40
2019-05-18T14:36:48.574Z,99.40
2019-05-18T14:39:23.237Z,97.40
2019-05-18T14:41:57.544Z,97.90
2019-05-18T14:44:31.363Z,98.10
2019-05-18T14:47:08.749Z,99.20
2019-05-18T14:52:36.219Z,97.60
2019-05-18T14:55:14.455Z,97.40
2019-05-18T14:58:08.069Z,97.00
2019-05-18T15:00:42.059Z,97.20
2019-05-18T15:03:13.113Z,96.50
2019-05-18T15:05:45.431Z,98.30
2019-05-18T15:08:23.632Z,98.60
2019-05-18T15:11:33.627Z,99.60
2019-05-18T15:14:12.020Z,96.30
2019-05-18T15:16:52.484Z,97.10
2019-05-18T15:19:22.644Z,98.50
2019-05-18T15:22:00.785Z,99.60
2019-05-18T15:24:39.945Z,99.20
2019-05-18T15:27:20.030Z,98.40
2019-05-18T15:30:06.173Z,99.80
2019-05-18T15:32:59.661Z,98.40
2019-05-18T15:35:39.469Z,98.60
2019-05-18T15:38:17.625Z,99.70
2019-05-18T15:41:01.721Z,99.90
2019-05-18T15:43:35.122Z,99.90
2019-05-18T15:46:11.656Z,99.90
2019-05-18T15:48:46.421Z,99.80
2019-05-18T15:51:40.455Z,99.90
2019-05-18T15:54:23.790Z,99.90
2019-05-18T15:57:06.783Z,99.90
2019-05-18T15:59:52.265Z,99.90
2019-05-18T16:02:32.383Z,99.90
2019-05-18T16:05:10.817Z,99.90
2019-05-18T16:07:52.312Z,99.90
2019-05-18T16:10:35.589Z,99.90
2019-05-18T16:13:20.640Z,99.90
2019-05-18T16:16:00.930Z,99.90
2019-05-18T16:18:40.704Z,99.90
2019-05-18T16:21:19.155Z,99.90
2019-05-18T16:24:01.519Z,99.90
2019-05-18T16:26:41.432Z,99.90
2019-05-18T16:29:19.489Z,99.90
2019-05-18T16:31:52.863Z,99.70
2019-05-18T16:34:37.454Z,99.90
2019-05-18T16:37:18.128Z,99.90
2019-05-18T16:39:57.100Z,99.90
2019-05-18T16:42:35.746Z,99.90
2019-05-18T16:45:16.174Z,99.90
2019-05-18T16:48:05.875Z,99.90
2019-05-18T16:50:55.453Z,99.90
2019-05-18T16:53:35.548Z,99.90
2019-05-18T16:56:19.171Z,99.90
2019-05-18T16:59:05.670Z,99.90
2019-05-18T17:01:55.352Z,99.90
2019-05-18T17:04:48.712Z,99.80
2019-05-18T17:07:33.719Z,99.40
2019-05-18T17:10:18.228Z,99.50
2019-05-18T17:12:50.639Z,98.70
2019-05-18T17:15:36.967Z,99.90
2019-05-18T17:18:20.402Z,99.90
2019-05-18T17:21:09.366Z,99.90
2019-05-18T17:23:59.280Z,99.30
2019-05-18T17:26:52.950Z,99.80
2019-05-18T17:29:36.838Z,99.80
2019-05-18T17:32:26.702Z,99.90
2019-05-18T17:35:14.222Z,99.90
2019-05-18T17:37:59.938Z,99.90
2019-05-18T17:41:05.096Z,99.90
2019-05-18T17:44:00.345Z,99.90
2019-05-18T17:46:49.105Z,99.80
2019-05-18T17:49:50.010Z,99.90
2019-05-18T17:52:50.601Z,99.90
2019-05-18T17:55:33.789Z,99.00
2019-05-18T17:58:21.131Z,98.60
2019-05-18T18:01:12.357Z,98.80
2019-05-18T18:04:03.261Z,99.00
2019-05-18T18:07:01.309Z,98.90
2019-05-18T18:09:59.071Z,98.70
2019-05-18T18:12:48.101Z,98.60
2019-05-18T18:15:35.840Z,99.60
2019-05-18T18:18:22.173Z,99.90
2019-05-18T18:21:07.694Z,99.70
2019-05-18T18:23:58.558Z,99.30
2019-05-18T18:26:41.590Z,98.80
2019-05-18T18:29:25.590Z,99.00
2019-05-18T18:32:13.224Z,98.20
2019-05-18T18:34:59.904Z,99.10
2019-05-18T18:37:43.900Z,99.90
2019-05-18T18:40:32.086Z,99.90
2019-05-18T18:43:34.475Z,99.90
2019-05-18T18:46:24.533Z,99.90
2019-05-18T18:49:11.394Z,99.90
2019-05-18T18:52:06.651Z,99.90
2019-05-18T18:55:02.480Z,99.90
2019-05-18T19:04:18.329Z,99.90
2019-05-18T19:07:09.178Z,99.90
2019-05-18T19:10:10.297Z,99.90
2019-05-18T19:13:03.769Z,99.90
2019-05-18T19:16:01.836Z,99.90
2019-05-18T19:18:46.457Z,99.90
2019-05-18T19:21:28.593Z,99.90
2019-05-18T19:24:09.805Z,99.90
2019-05-18T19:26:54.562Z,99.90
2019-05-18T19:29:39.826Z,99.90
2019-05-18T19:32:47.407Z,99.90
2019-05-18T19:39:08.355Z,99.90
2019-05-18T19:42:10.428Z,99.90
2019-05-18T19:44:56.376Z,99.90
2019-05-18T19:47:45.270Z,99.90
2019-05-18T19:50:55.494Z,99.90
2019-05-18T19:53:44.405Z,99.90
2019-05-18T19:56:41.836Z,99.90
2019-05-18T19:59:12.054Z,99.90
2019-05-18T20:01:47.223Z,99.90
2019-05-18T20:04:32.302Z,99.90
2019-05-18T20:07:13.489Z,99.90
2019-05-18T20:09:53.026Z,99.90
2019-05-18T20:12:34.884Z,99.90
2019-05-18T20:15:10.573Z,99.90
2019-05-18T20:17:51.867Z,99.90
2019-05-18T20:20:26.150Z,99.90
2019-05-18T20:23:03.996Z,99.90
2019-05-18T20:25:43.828Z,99.90
2019-05-18T20:28:29.985Z,99.90
2019-05-18T20:31:09.963Z,99.90
2019-05-18T20:33:49.813Z,99.90
2019-05-18T20:36:37.835Z,99.90
2019-05-18T20:39:34.070Z,99.90
2019-05-18T20:42:04.252Z,99.90
2019-05-18T20:48:28.592Z,99.90
2019-05-18T20:51:24.408Z,99.90
2019-05-18T20:54:02.155Z,99.90
2019-05-18T20:57:46.005Z,99.90
2019-05-18T21:01:58.482Z,99.90
2019-05-18T21:04:28.970Z,99.90
2019-05-18T21:07:16.482Z,99.90
2019-05-18T21:13:12.949Z,99.90
2019-05-18T21:24:35.938Z,99.90
2019-05-18T21:35:02.106Z,99.90
2019-05-18T21:37:48.961Z,99.90
2019-05-18T21:41:15.660Z,99.90
2019-05-18T21:51:29.058Z,99.90
2019-05-18T21:57:57.621Z,99.90
2019-05-18T22:01:16.144Z,99.90
2019-05-18T22:04:40.751Z,99.90
2019-05-18T22:07:30.495Z,99.90
2019-05-18T22:10:08.763Z,99.90
2019-05-18T22:12:44.556Z,99.90
2019-05-18T22:15:24.521Z,99.90
2019-05-18T22:18:07.329Z,99.90
2019-05-18T22:20:50.397Z,99.90
2019-05-18T22:23:25.302Z,99.90
2019-05-18T22:26:04.784Z,99.90
2019-05-18T22:28:51.303Z,99.90
2019-05-18T22:31:29.112Z,99.90
2019-05-18T22:34:14.505Z,99.90
2019-05-18T22:37:11.477Z,99.90
2019-05-18T22:39:50.535Z,99.90
2019-05-18T22:42:36.514Z,99.90
2019-05-18T22:45:21.109Z,99.90
2019-05-18T22:48:03.722Z,99.90
2019-05-18T22:51:04.754Z,99.90
2019-05-18T22:53:49.825Z,99.90
2019-05-18T22:56:48.018Z,99.90
2019-05-18T22:59:19.303Z,99.90
2019-05-18T23:05:59.419Z,99.90
2019-05-18T23:08:39.153Z,99.90
2019-05-18T23:11:20.655Z,99.90
2019-05-18T23:14:03.451Z,99.90
2019-05-18T23:16:43.102Z,99.90
2019-05-18T23:19:24.232Z,99.90
2019-05-18T23:22:04.171Z,99.90
2019-05-18T23:24:51.104Z,99.90
2019-05-18T23:27:30.968Z,99.90
2019-05-18T23:30:11.715Z,99.90
2019-05-18T23:36:16.368Z,99.90
2019-05-18T23:39:29.716Z,99.90
2019-05-18T23:42:39.819Z,99.90
2019-05-18T23:45:35.986Z,99.90
2019-05-18T23:48:25.495Z,99.90
2019-05-18T23:51:51.662Z,99.90
2019-05-18T23:54:39.487Z,99.90
2019-05-18T23:57:26.710Z,99.90
